createdAt,value
2023-04-01T00:00:52.458Z,0.00
2023-04-01T00:01:52.465Z,0.00
2023-04-01T00:02:52.488Z,0.00
2023-04-01T00:03:52.521Z,0.00
2023-04-01T00:04:52.586Z,0.00
2023-04-01T00:05:52.399Z,0.00
2023-04-01T00:06:52.430Z,0.00
2023-04-01T00:07:52.397Z,0.00
2023-04-01T00:08:52.361Z,0.00
2023-04-01T00:09:52.356Z,0.00
2023-04-01T00:10:52.347Z,0.00
2023-04-01T00:11:52.333Z,0.00
2023-04-01T00:12:52.334Z,0.00
2023-04-01T00:13:52.313Z,0.00
2023-04-01T00:14:52.344Z,0.00
2023-04-01T00:15:52.316Z,0.00
2023-04-01T00:16:52.330Z,0.00
2023-04-01T00:17:52.319Z,0.00
2023-04-01T00:18:52.254Z,0.00
2023-04-01T00:19:52.256Z,0.00
2023-04-01T00:20:52.237Z,0.00
2023-04-01T00:21:52.257Z,0.00
2023-04-01T00:22:52.227Z,0.00
2023-04-01T00:23:52.370Z,0.00
2023-04-01T00:24:52.214Z,0.00
2023-04-01T00:25:52.185Z,0.00
2023-04-01T00:26:52.187Z,0.00
2023-04-01T00:27:52.230Z,0.00
2023-04-01T00:28:52.245Z,0.00
2023-04-01T00:29:52.157Z,0.00
2023-04-01T00:30:52.171Z,0.00
2023-04-01T00:31:52.229Z,0.00
2023-04-01T00:32:52.169Z,0.00
2023-04-01T00:33:52.107Z,0.00
2023-04-01T00:34:52.132Z,0.00
2023-04-01T00:35:52.116Z,0.00
2023-04-01T00:36:52.101Z,0.00
2023-04-01T00:37:52.118Z,0.00
2023-04-01T00:38:52.068Z,0.00
2023-04-01T00:39:52.030Z,0.00
2023-04-01T00:40:52.052Z,0.00
2023-04-01T00:41:52.019Z,0.00
2023-04-01T00:42:52.018Z,0.00
2023-04-01T00:43:52.105Z,0.00
2023-04-01T00:44:51.983Z,0.00
2023-04-01T00:45:51.963Z,0.00
2023-04-01T00:46:52.092Z,0.00
2023-04-01T00:47:52.018Z,0.00
2023-04-01T00:48:51.950Z,0.00
2023-04-01T00:49:51.945Z,0.00
2023-04-01T00:50:51.916Z,0.00
2023-04-01T00:51:51.907Z,0.00
2023-04-01T00:52:51.899Z,0.00
2023-04-01T00:53:51.912Z,0.00
2023-04-01T00:54:51.865Z,0.00
2023-04-01T00:55:51.863Z,0.00
2023-04-01T00:56:51.874Z,0.00
2023-04-01T00:57:51.859Z,0.00
2023-04-01T00:58:51.849Z,0.00
2023-04-01T00:59:51.817Z,0.00
2023-04-01T01:00:51.862Z,0.00
2023-04-01T01:01:51.857Z,0.00
2023-04-01T01:02:51.839Z,0.00
2023-04-01T01:03:51.775Z,0.00
2023-04-01T01:04:51.765Z,0.00
2023-04-01T01:05:52.039Z,0.00
2023-04-01T01:06:51.780Z,0.00
2023-04-01T01:07:51.751Z,0.00
2023-04-01T01:08:51.764Z,0.00
2023-04-01T01:09:51.719Z,0.00
2023-04-01T01:10:51.701Z,0.00
2023-04-01T01:11:51.692Z,0.00
2023-04-01T01:12:51.714Z,0.00
2023-04-01T01:13:51.680Z,0.00
2023-04-01T01:14:51.682Z,0.00
2023-04-01T01:15:51.653Z,0.00
2023-04-01T01:16:51.721Z,0.00
2023-04-01T01:17:51.697Z,0.00
2023-04-01T01:18:51.609Z,0.00
2023-04-01T01:19:51.640Z,0.00
2023-04-01T01:20:51.654Z,0.00
2023-04-01T01:21:51.636Z,0.00
2023-04-01T01:22:51.580Z,0.00
2023-04-01T01:23:51.567Z,0.00
2023-04-01T01:24:51.605Z,0.00
2023-04-01T01:25:51.543Z,0.00
2023-04-01T01:26:51.518Z,0.00
2023-04-01T01:27:51.528Z,0.00
2023-04-01T01:28:51.528Z,0.00
2023-04-01T01:29:51.502Z,0.00
2023-04-01T01:30:51.563Z,0.00
2023-04-01T01:31:51.484Z,0.00
2023-04-01T01:32:51.534Z,0.00
2023-04-01T01:33:51.477Z,0.00
2023-04-01T01:34:51.444Z,0.00
2023-04-01T01:35:51.489Z,0.00
2023-04-01T01:36:51.481Z,0.00
2023-04-01T01:37:51.433Z,0.00
2023-04-01T01:38:51.405Z,0.00
2023-04-01T01:39:51.384Z,0.00
2023-04-01T01:40:51.375Z,0.00
2023-04-01T01:41:51.362Z,0.00
2023-04-01T01:42:51.357Z,0.00
2023-04-01T01:43:51.349Z,0.00
2023-04-01T01:44:51.355Z,0.00
2023-04-01T01:45:51.416Z,0.00
2023-04-01T01:46:51.305Z,0.00
2023-04-01T01:47:51.346Z,0.00
2023-04-01T01:48:51.294Z,0.00
2023-04-01T01:49:51.285Z,0.00
2023-04-01T01:50:51.312Z,0.00
2023-04-01T01:51:51.254Z,0.00
2023-04-01T01:52:51.248Z,0.00
2023-04-01T01:53:51.313Z,0.00
2023-04-01T01:54:51.292Z,0.00
2023-04-01T01:55:51.237Z,0.00
2023-04-01T01:56:51.262Z,0.00
2023-04-01T01:57:51.201Z,0.00
2023-04-01T01:58:51.177Z,0.00
2023-04-01T01:59:51.217Z,0.00
2023-04-01T02:00:51.179Z,0.00
2023-04-01T02:01:51.178Z,0.00
2023-04-01T02:02:51.245Z,0.00
2023-04-01T02:03:51.139Z,0.00
2023-04-01T02:04:51.136Z,0.00
2023-04-01T02:05:51.107Z,0.00
2023-04-01T02:06:51.099Z,0.00
2023-04-01T02:07:51.098Z,0.00
2023-04-01T02:08:51.128Z,0.00
2023-04-01T02:09:51.062Z,0.00
2023-04-01T02:10:51.048Z,0.00
2023-04-01T02:11:51.046Z,0.00
2023-04-01T02:12:51.082Z,0.00
2023-04-01T02:13:51.032Z,0.00
2023-04-01T02:14:51.002Z,0.00
2023-04-01T02:15:50.998Z,0.00
2023-04-01T02:16:50.986Z,0.00
2023-04-01T02:17:51.036Z,0.00
2023-04-01T02:18:51.019Z,0.00
2023-04-01T02:19:51.140Z,0.00
2023-04-01T02:20:50.957Z,0.00
2023-04-01T02:21:50.956Z,0.00
2023-04-01T02:22:50.946Z,0.00
2023-04-01T02:23:50.914Z,0.00
2023-04-01T02:24:50.933Z,0.00
2023-04-01T02:25:50.948Z,0.00
2023-04-01T02:26:50.893Z,0.00
2023-04-01T02:27:50.873Z,0.00
2023-04-01T02:28:50.851Z,0.00
2023-04-01T02:29:50.843Z,0.00
2023-04-01T02:30:50.840Z,0.00
2023-04-01T02:31:50.890Z,0.00
2023-04-01T02:32:50.893Z,0.00
2023-04-01T02:33:50.807Z,0.00
2023-04-01T02:34:50.788Z,0.00
2023-04-01T02:35:50.816Z,0.00
2023-04-01T02:36:50.767Z,0.00
2023-04-01T02:37:50.804Z,0.00
2023-04-01T02:38:50.747Z,0.00
2023-04-01T02:39:50.743Z,0.00
2023-04-01T02:40:50.721Z,0.00
2023-04-01T02:41:50.710Z,0.00
2023-04-01T02:42:50.708Z,0.00
2023-04-01T02:43:50.730Z,0.00
2023-04-01T02:44:50.738Z,0.00
2023-04-01T02:45:50.680Z,0.00
2023-04-01T02:46:50.690Z,0.00
2023-04-01T02:47:50.718Z,0.00
2023-04-01T02:48:50.643Z,0.00
2023-04-01T02:49:50.631Z,0.00
2023-04-01T02:50:50.617Z,0.00
2023-04-01T02:51:50.605Z,0.00
2023-04-01T02:52:50.617Z,0.00
2023-04-01T02:53:50.611Z,0.00
2023-04-01T02:54:50.568Z,0.00
2023-04-01T02:55:50.568Z,0.00
2023-04-01T02:56:50.593Z,0.00
2023-04-01T02:57:50.544Z,0.00
2023-04-01T02:58:50.584Z,0.00
2023-04-01T02:59:50.528Z,0.00
2023-04-01T03:00:50.526Z,0.00
2023-04-01T03:01:50.501Z,0.00
2023-04-01T03:02:50.663Z,0.00
2023-04-01T03:03:50.505Z,0.00
2023-04-01T03:04:50.468Z,0.00
2023-04-01T03:05:50.461Z,0.00
2023-04-01T03:06:50.439Z,0.00
2023-04-01T03:07:50.447Z,0.00
2023-04-01T03:08:50.436Z,0.00
2023-04-01T03:09:50.434Z,0.00
2023-04-01T03:10:50.413Z,0.00
2023-04-01T03:11:50.391Z,0.00
2023-04-01T03:12:50.408Z,0.00
2023-04-01T03:13:50.391Z,0.00
2023-04-01T03:14:50.406Z,0.00
2023-04-01T03:15:50.350Z,0.00
2023-04-01T03:16:50.459Z,0.00
2023-04-01T03:17:50.381Z,0.00
2023-04-01T03:18:50.337Z,0.00
2023-04-01T03:19:50.314Z,0.00
2023-04-01T03:20:50.321Z,0.00
2023-04-01T03:21:50.287Z,0.00
2023-04-01T03:22:50.288Z,0.00
2023-04-01T03:23:50.287Z,0.00
2023-04-01T03:24:50.248Z,0.00
2023-04-01T03:25:50.266Z,0.00
2023-04-01T03:26:50.227Z,0.00
2023-04-01T03:27:50.257Z,0.00
2023-04-01T03:28:50.215Z,0.00
2023-04-01T03:29:50.264Z,0.00
2023-04-01T03:30:50.221Z,0.00
2023-04-01T03:31:50.195Z,0.00
2023-04-01T03:32:50.273Z,0.00
2023-04-01T03:33:50.209Z,0.00
2023-04-01T03:34:50.170Z,0.00
2023-04-01T03:35:50.120Z,0.00
2023-04-01T03:36:50.113Z,0.00
2023-04-01T03:37:50.117Z,0.00
2023-04-01T03:38:50.093Z,0.00
2023-04-01T03:39:50.106Z,0.00
2023-04-01T03:40:50.229Z,0.00
2023-04-01T03:41:50.062Z,0.00
2023-04-01T03:42:50.165Z,0.00
2023-04-01T03:43:50.154Z,0.00
2023-04-01T03:44:50.042Z,0.00
2023-04-01T03:45:50.051Z,0.00
2023-04-01T03:46:50.009Z,0.00
2023-04-01T03:47:50.049Z,0.00
2023-04-01T03:48:50.116Z,0.00
2023-04-01T03:49:49.974Z,0.00
2023-04-01T03:50:50.095Z,0.00
2023-04-01T03:51:49.963Z,0.00
2023-04-01T03:52:49.965Z,0.00
2023-04-01T03:53:50.032Z,0.00
2023-04-01T03:54:49.954Z,0.00
2023-04-01T03:55:49.906Z,0.00
2023-04-01T03:56:49.998Z,0.00
2023-04-01T03:57:49.900Z,0.00
2023-04-01T03:58:49.977Z,0.00
2023-04-01T03:59:49.869Z,0.00
2023-04-01T04:00:49.881Z,0.00
2023-04-01T04:01:49.853Z,0.00
2023-04-01T04:02:49.930Z,0.00
2023-04-01T04:03:49.997Z,0.00
2023-04-01T04:04:49.820Z,0.00
2023-04-01T04:05:49.809Z,0.00
2023-04-01T04:06:49.849Z,0.00
2023-04-01T04:07:49.824Z,0.00
2023-04-01T04:08:49.799Z,0.00
2023-04-01T04:09:49.770Z,0.00
2023-04-01T04:10:49.757Z,0.00
2023-04-01T04:11:49.788Z,0.00
2023-04-01T04:12:49.748Z,0.00
2023-04-01T04:13:49.794Z,0.00
2023-04-01T04:14:49.726Z,0.00
2023-04-01T04:15:49.738Z,0.00
2023-04-01T04:16:49.684Z,0.00
2023-04-01T04:17:49.748Z,0.00
2023-04-01T04:18:49.662Z,0.00
2023-04-01T04:19:49.676Z,0.00
2023-04-01T04:20:49.639Z,0.00
2023-04-01T04:21:49.635Z,0.00
2023-04-01T04:22:49.660Z,0.00
2023-04-01T04:23:49.653Z,0.00
2023-04-01T04:24:49.610Z,0.00
2023-04-01T04:25:49.608Z,0.00
2023-04-01T04:26:49.583Z,0.00
2023-04-01T04:27:49.574Z,0.00
2023-04-01T04:28:49.554Z,0.00
2023-04-01T04:29:49.548Z,0.00
2023-04-01T04:30:49.588Z,0.00
2023-04-01T04:31:49.580Z,0.00
2023-04-01T04:32:49.593Z,0.00
2023-04-01T04:33:49.492Z,0.00
2023-04-01T04:34:49.569Z,0.00
2023-04-01T04:35:49.563Z,0.00
2023-04-01T04:36:49.468Z,0.00
2023-04-01T04:37:49.473Z,0.00
2023-04-01T04:38:49.441Z,0.00
2023-04-01T04:39:49.434Z,0.00
2023-04-01T04:40:49.425Z,0.00
2023-04-01T04:41:49.406Z,0.00
2023-04-01T04:42:49.450Z,0.00
2023-04-01T04:43:49.383Z,0.00
2023-04-01T04:44:49.393Z,0.00
2023-04-01T04:45:49.395Z,0.00
2023-04-01T04:46:49.400Z,0.00
2023-04-01T04:47:49.453Z,0.00
2023-04-01T04:48:49.362Z,0.00
2023-04-01T04:49:49.357Z,0.00
2023-04-01T04:50:49.368Z,0.00
2023-04-01T04:51:49.297Z,0.00
2023-04-01T04:52:49.427Z,0.00
2023-04-01T04:53:50.797Z,0.00
2023-04-01T04:54:49.274Z,0.00
2023-04-01T04:55:49.264Z,0.00
2023-04-01T04:56:49.274Z,0.00
2023-04-01T04:57:49.276Z,0.00
2023-04-01T04:58:49.288Z,0.00
2023-04-01T04:59:49.220Z,0.00
2023-04-01T05:00:49.205Z,0.00
2023-04-01T05:01:49.346Z,0.00
2023-04-01T05:02:49.341Z,0.00
2023-04-01T05:03:49.220Z,0.00
2023-04-01T05:04:49.162Z,0.00
2023-04-01T05:05:49.176Z,0.00
2023-04-01T05:06:49.134Z,0.00
2023-04-01T05:07:49.147Z,0.00
2023-04-01T05:08:49.186Z,0.00
2023-04-01T05:09:49.104Z,0.00
2023-04-01T05:10:49.162Z,5.62
2023-04-01T05:11:49.083Z,5.62
2023-04-01T05:12:49.076Z,5.62
2023-04-01T05:13:49.083Z,5.62
2023-04-01T05:14:49.060Z,5.62
2023-04-01T05:15:49.055Z,5.62
2023-04-01T05:16:49.087Z,5.62
2023-04-01T05:17:49.116Z,5.62
2023-04-01T05:18:49.021Z,11.25
2023-04-01T05:19:49.006Z,11.25
2023-04-01T05:20:48.982Z,11.25
2023-04-01T05:21:48.974Z,11.25
2023-04-01T05:22:49.059Z,11.25
2023-04-01T05:23:48.965Z,11.25
2023-04-01T05:24:48.952Z,11.25
2023-04-01T05:25:48.944Z,11.25
2023-04-01T05:26:48.927Z,16.88
2023-04-01T05:27:48.955Z,11.25
2023-04-01T05:28:48.898Z,11.25
2023-04-01T05:29:48.904Z,16.88
2023-04-01T05:30:48.918Z,16.88
2023-04-01T05:31:48.976Z,16.88
2023-04-01T05:32:48.905Z,16.88
2023-04-01T05:33:48.856Z,16.88
2023-04-01T05:34:48.854Z,16.88
2023-04-01T05:35:48.907Z,22.50
2023-04-01T05:36:48.836Z,22.50
2023-04-01T05:37:48.819Z,22.50
2023-04-01T05:38:48.797Z,22.50
2023-04-01T05:39:48.782Z,16.88
2023-04-01T05:40:48.769Z,22.50
2023-04-01T05:41:48.761Z,22.50
2023-04-01T05:42:48.770Z,22.50
2023-04-01T05:43:48.747Z,28.12
2023-04-01T05:44:48.735Z,28.12
2023-04-01T05:45:48.811Z,33.75
2023-04-01T05:46:48.712Z,39.38
2023-04-01T05:47:48.750Z,39.38
2023-04-01T05:48:48.701Z,39.38
2023-04-01T05:49:48.668Z,45.00
2023-04-01T05:50:48.664Z,50.62
2023-04-01T05:51:48.651Z,45.00
2023-04-01T05:52:48.653Z,50.62
2023-04-01T05:53:48.629Z,56.25
2023-04-01T05:54:48.608Z,56.25
2023-04-01T05:55:48.652Z,61.88
2023-04-01T05:56:48.997Z,73.12
2023-04-01T05:57:48.719Z,78.75
2023-04-01T05:58:48.621Z,84.38
2023-04-01T05:59:48.578Z,90.00
2023-04-01T06:00:56.021Z,90.00
2023-04-01T06:01:49.596Z,95.62
2023-04-01T06:02:48.664Z,90.00
2023-04-01T06:03:48.880Z,90.00
2023-04-01T06:04:48.597Z,90.00
2023-04-01T06:05:48.520Z,90.00
2023-04-01T06:06:48.482Z,90.00
2023-04-01T06:07:48.491Z,84.38
2023-04-01T06:08:48.469Z,84.38
2023-04-01T06:09:48.459Z,84.38
2023-04-01T06:10:48.440Z,78.75
2023-04-01T06:11:48.429Z,73.12
2023-04-01T06:12:48.421Z,73.12
2023-04-01T06:13:48.447Z,67.50
2023-04-01T06:14:48.411Z,67.50
2023-04-01T06:15:48.384Z,67.50
2023-04-01T06:16:48.379Z,67.50
2023-04-01T06:17:48.427Z,67.50
2023-04-01T06:18:48.359Z,73.12
2023-04-01T06:19:48.406Z,78.75
2023-04-01T06:20:48.331Z,84.38
2023-04-01T06:21:48.397Z,90.00
2023-04-01T06:22:48.399Z,101.25
2023-04-01T06:23:48.366Z,112.50
2023-04-01T06:24:48.295Z,112.50
2023-04-01T06:25:48.305Z,112.50
2023-04-01T06:26:48.297Z,112.50
2023-04-01T06:27:48.265Z,106.88
2023-04-01T06:28:48.283Z,101.25
2023-04-01T06:29:48.287Z,106.88
2023-04-01T06:30:48.224Z,112.50
2023-04-01T06:31:48.273Z,123.75
2023-04-01T06:32:48.272Z,129.38
2023-04-01T06:33:48.204Z,146.25
2023-04-01T06:34:48.205Z,140.62
2023-04-01T06:35:48.253Z,140.62
2023-04-01T06:36:48.231Z,151.88
2023-04-01T06:37:48.167Z,168.75
2023-04-01T06:38:48.155Z,174.38
2023-04-01T06:39:48.131Z,180.00
2023-04-01T06:40:48.164Z,191.25
2023-04-01T06:41:48.151Z,196.88
2023-04-01T06:42:49.030Z,196.88
2023-04-01T06:43:48.823Z,191.25
2023-04-01T06:44:48.564Z,180.00
2023-04-01T06:45:48.301Z,185.62
2023-04-01T06:46:48.230Z,196.88
2023-04-01T06:47:48.268Z,202.50
2023-04-01T06:48:48.262Z,196.88
2023-04-01T06:49:48.354Z,202.50
2023-04-01T06:50:48.102Z,208.12
2023-04-01T06:51:48.256Z,196.88
2023-04-01T06:52:48.954Z,202.50
2023-04-01T06:53:47.985Z,236.25
2023-04-01T06:54:47.975Z,286.88
2023-04-01T06:55:48.192Z,343.12
2023-04-01T06:56:48.135Z,360.00
2023-04-01T06:57:47.992Z,343.12
2023-04-01T06:58:47.927Z,315.00
2023-04-01T06:59:47.914Z,298.12
2023-04-01T07:00:47.957Z,315.00
2023-04-01T07:01:48.027Z,326.25
2023-04-01T07:02:47.975Z,320.62
2023-04-01T07:03:47.875Z,320.62
2023-04-01T07:04:47.972Z,309.38
2023-04-01T07:05:47.849Z,292.50
2023-04-01T07:06:47.906Z,275.62
2023-04-01T07:07:47.846Z,270.00
2023-04-01T07:08:47.834Z,270.00
2023-04-01T07:09:47.804Z,281.25
2023-04-01T07:10:47.831Z,270.00
2023-04-01T07:11:47.786Z,247.50
2023-04-01T07:12:47.842Z,247.50
2023-04-01T07:13:47.759Z,298.12
2023-04-01T07:14:47.870Z,298.12
2023-04-01T07:15:47.981Z,309.38
2023-04-01T07:16:47.804Z,309.38
2023-04-01T07:17:47.846Z,298.12
2023-04-01T07:18:47.704Z,275.62
2023-04-01T07:19:47.752Z,275.62
2023-04-01T07:20:47.706Z,292.50
2023-04-01T07:21:47.661Z,286.88
2023-04-01T07:22:47.935Z,247.50
2023-04-01T07:23:47.651Z,264.38
2023-04-01T07:24:47.647Z,275.62
2023-04-01T07:25:47.636Z,270.00
2023-04-01T07:26:48.209Z,247.50
2023-04-01T07:27:47.718Z,230.62
2023-04-01T07:28:47.667Z,225.00
2023-04-01T07:29:47.584Z,241.88
2023-04-01T07:30:47.578Z,264.38
2023-04-01T07:31:47.558Z,253.12
2023-04-01T07:32:47.612Z,236.25
2023-04-01T07:33:47.534Z,219.38
2023-04-01T07:34:47.540Z,213.75
2023-04-01T07:35:47.558Z,225.00
2023-04-01T07:36:47.536Z,247.50
2023-04-01T07:37:47.633Z,247.50
2023-04-01T07:38:47.544Z,241.88
2023-04-01T07:39:47.486Z,213.75
2023-04-01T07:40:47.467Z,202.50
2023-04-01T07:41:47.476Z,225.00
2023-04-01T07:42:47.488Z,247.50
2023-04-01T07:43:47.440Z,247.50
2023-04-01T07:44:47.426Z,241.88
2023-04-01T07:45:47.535Z,241.88
2023-04-01T07:46:47.438Z,281.25
2023-04-01T07:47:47.426Z,292.50
2023-04-01T07:48:47.384Z,292.50
2023-04-01T07:49:47.369Z,298.12
2023-04-01T07:50:48.808Z,292.50
2023-04-01T07:51:47.346Z,309.38
2023-04-01T07:52:47.436Z,292.50
2023-04-01T07:53:47.344Z,292.50
2023-04-01T07:54:47.327Z,309.38
2023-04-01T07:55:47.337Z,298.12
2023-04-01T07:56:47.327Z,281.25
2023-04-01T07:57:47.356Z,264.38
2023-04-01T07:58:47.280Z,258.75
2023-04-01T07:59:47.283Z,258.75
2023-04-01T08:00:47.330Z,253.12
2023-04-01T08:01:47.252Z,253.12
2023-04-01T08:02:47.336Z,230.62
2023-04-01T08:03:47.326Z,225.00
2023-04-01T08:04:47.233Z,196.88
2023-04-01T08:05:47.212Z,185.62
2023-04-01T08:06:47.204Z,196.88
2023-04-01T08:07:47.187Z,208.12
2023-04-01T08:08:47.166Z,208.12
2023-04-01T08:09:47.147Z,219.38
2023-04-01T08:10:47.207Z,230.62
2023-04-01T08:11:47.125Z,253.12
2023-04-01T08:12:47.156Z,286.88
2023-04-01T08:13:47.117Z,281.25
2023-04-01T08:14:47.132Z,309.38
2023-04-01T08:15:47.094Z,320.62
2023-04-01T08:16:47.075Z,337.50
2023-04-01T08:17:47.096Z,337.50
2023-04-01T08:18:47.047Z,326.25
2023-04-01T08:19:47.069Z,320.62
2023-04-01T08:20:47.033Z,365.62
2023-04-01T08:21:47.010Z,360.00
2023-04-01T08:22:47.017Z,360.00
2023-04-01T08:23:46.998Z,376.88
2023-04-01T08:24:48.273Z,399.38
2023-04-01T08:25:46.998Z,365.62
2023-04-01T08:26:46.961Z,326.25
2023-04-01T08:27:46.982Z,365.62
2023-04-01T08:28:46.992Z,343.12
2023-04-01T08:29:46.928Z,298.12
2023-04-01T08:30:46.919Z,292.50
2023-04-01T08:31:46.920Z,286.88
2023-04-01T08:32:47.021Z,298.12
2023-04-01T08:33:46.879Z,309.38
2023-04-01T08:34:46.880Z,292.50
2023-04-01T08:35:46.920Z,286.88
2023-04-01T08:36:46.855Z,286.88
2023-04-01T08:37:46.857Z,315.00
2023-04-01T08:38:46.835Z,286.88
2023-04-01T08:39:46.829Z,303.75
2023-04-01T08:40:46.815Z,286.88
2023-04-01T08:41:46.796Z,309.38
2023-04-01T08:42:46.793Z,315.00
2023-04-01T08:43:46.774Z,343.12
2023-04-01T08:44:46.789Z,326.25
2023-04-01T08:45:46.774Z,292.50
2023-04-01T08:46:46.762Z,309.38
2023-04-01T08:47:46.760Z,315.00
2023-04-01T08:48:46.750Z,320.62
2023-04-01T08:49:46.708Z,292.50
2023-04-01T08:50:46.704Z,343.12
2023-04-01T08:51:46.814Z,326.25
2023-04-01T08:52:46.703Z,315.00
2023-04-01T08:53:46.695Z,331.88
2023-04-01T08:54:46.662Z,354.38
2023-04-01T08:55:46.647Z,382.50
2023-04-01T08:56:46.750Z,365.62
2023-04-01T08:57:46.633Z,376.88
2023-04-01T08:58:46.642Z,365.62
2023-04-01T08:59:46.608Z,382.50
2023-04-01T09:00:46.621Z,376.88
2023-04-01T09:01:46.648Z,444.38
2023-04-01T09:02:46.720Z,444.38
2023-04-01T09:03:46.668Z,416.25
2023-04-01T09:04:46.556Z,410.62
2023-04-01T09:05:46.685Z,433.12
2023-04-01T09:06:46.545Z,472.50
2023-04-01T09:07:46.525Z,444.38
2023-04-01T09:08:46.522Z,495.00
2023-04-01T09:09:46.497Z,517.50
2023-04-01T09:10:46.536Z,517.50
2023-04-01T09:11:46.517Z,511.88
2023-04-01T09:12:46.501Z,506.25
2023-04-01T09:13:46.543Z,517.50
2023-04-01T09:14:46.452Z,528.75
2023-04-01T09:15:46.489Z,517.50
2023-04-01T09:16:46.430Z,489.38
2023-04-01T09:17:46.490Z,444.38
2023-04-01T09:18:46.427Z,393.75
2023-04-01T09:19:46.400Z,343.12
2023-04-01T09:20:46.382Z,315.00
2023-04-01T09:21:46.381Z,298.12
2023-04-01T09:22:46.379Z,281.25
2023-04-01T09:23:46.352Z,264.38
2023-04-01T09:24:46.372Z,253.12
2023-04-01T09:25:46.331Z,236.25
2023-04-01T09:26:46.375Z,241.88
2023-04-01T09:27:46.320Z,253.12
2023-04-01T09:28:46.350Z,298.12
2023-04-01T09:29:46.319Z,331.88
2023-04-01T09:30:46.283Z,326.25
2023-04-01T09:31:46.332Z,348.75
2023-04-01T09:32:46.327Z,365.62
2023-04-01T09:33:46.333Z,421.88
2023-04-01T09:34:46.268Z,444.38
2023-04-01T09:35:46.264Z,528.75
2023-04-01T09:36:46.231Z,511.88
2023-04-01T09:37:46.228Z,495.00
2023-04-01T09:38:46.252Z,618.75
2023-04-01T09:39:46.190Z,646.88
2023-04-01T09:40:46.205Z,618.75
2023-04-01T09:41:46.177Z,596.25
2023-04-01T09:42:46.168Z,545.62
2023-04-01T09:43:46.173Z,568.12
2023-04-01T09:44:46.170Z,573.75
2023-04-01T09:45:46.158Z,523.12
2023-04-01T09:46:46.356Z,703.12
2023-04-01T09:47:46.169Z,748.12
2023-04-01T09:48:46.100Z,725.62
2023-04-01T09:49:46.079Z,720.00
2023-04-01T09:50:46.088Z,691.88
2023-04-01T09:51:46.111Z,635.62
2023-04-01T09:52:46.547Z,573.75
2023-04-01T09:53:46.038Z,596.25
2023-04-01T09:54:46.057Z,669.38
2023-04-01T09:55:46.013Z,720.00
2023-04-01T09:56:46.083Z,720.00
2023-04-01T09:57:45.994Z,708.75
2023-04-01T09:58:45.981Z,736.88
2023-04-01T09:59:46.010Z,686.25
2023-04-01T10:00:45.959Z,675.00
2023-04-01T10:01:45.986Z,680.62
2023-04-01T10:02:45.966Z,736.88
2023-04-01T10:03:45.932Z,697.50
2023-04-01T10:04:45.968Z,691.88
2023-04-01T10:05:45.918Z,753.75
2023-04-01T10:06:45.893Z,691.88
2023-04-01T10:07:45.891Z,613.12
2023-04-01T10:08:45.876Z,579.38
2023-04-01T10:09:45.858Z,596.25
2023-04-01T10:10:45.852Z,590.62
2023-04-01T10:11:45.846Z,686.25
2023-04-01T10:12:45.899Z,675.00
2023-04-01T10:13:45.829Z,624.38
2023-04-01T10:14:45.813Z,573.75
2023-04-01T10:15:45.852Z,618.75
2023-04-01T10:16:45.862Z,585.00
2023-04-01T10:17:45.787Z,556.88
2023-04-01T10:18:45.763Z,658.12
2023-04-01T10:19:45.775Z,753.75
2023-04-01T10:20:46.154Z,838.12
2023-04-01T10:21:45.795Z,855.00
2023-04-01T10:22:45.718Z,894.38
2023-04-01T10:23:45.744Z,731.25
2023-04-01T10:24:45.706Z,748.12
2023-04-01T10:25:45.697Z,877.50
2023-04-01T10:26:45.697Z,939.38
2023-04-01T10:27:45.681Z,821.25
2023-04-01T10:28:45.671Z,652.50
2023-04-01T10:29:45.645Z,624.38
2023-04-01T10:30:45.676Z,630.00
2023-04-01T10:31:45.756Z,748.12
2023-04-01T10:32:45.626Z,849.38
2023-04-01T10:33:45.590Z,916.88
2023-04-01T10:34:45.585Z,838.12
2023-04-01T10:35:45.627Z,984.38
2023-04-01T10:36:45.610Z,950.62
2023-04-01T10:37:45.571Z,1018.12
2023-04-01T10:38:45.549Z,883.12
2023-04-01T10:39:45.535Z,922.50
2023-04-01T10:40:45.519Z,843.75
2023-04-01T10:41:45.520Z,821.25
2023-04-01T10:42:45.558Z,720.00
2023-04-01T10:43:45.501Z,720.00
2023-04-01T10:44:45.530Z,742.50
2023-04-01T10:45:45.614Z,646.88
2023-04-01T10:46:45.539Z,680.62
2023-04-01T10:47:45.557Z,798.75
2023-04-01T10:48:45.462Z,815.62
2023-04-01T10:49:45.418Z,697.50
2023-04-01T10:50:45.442Z,753.75
2023-04-01T10:51:45.391Z,793.12
2023-04-01T10:52:45.415Z,759.38
2023-04-01T10:53:45.378Z,742.50
2023-04-01T10:54:45.369Z,686.25
2023-04-01T10:55:45.361Z,697.50
2023-04-01T10:56:45.426Z,646.88
2023-04-01T10:57:45.354Z,680.62
2023-04-01T10:58:45.323Z,838.12
2023-04-01T10:59:45.324Z,961.88
2023-04-01T11:00:45.345Z,804.38
2023-04-01T11:01:45.408Z,720.00
2023-04-01T11:02:45.356Z,624.38
2023-04-01T11:03:45.388Z,540.00
2023-04-01T11:04:45.305Z,618.75
2023-04-01T11:05:45.245Z,630.00
2023-04-01T11:06:45.281Z,573.75
2023-04-01T11:07:50.453Z,686.25
2023-04-01T11:08:46.225Z,601.88
2023-04-01T11:09:45.206Z,624.38
2023-04-01T11:10:45.209Z,669.38
2023-04-01T11:11:45.213Z,534.38
2023-04-01T11:12:45.224Z,545.62
2023-04-01T11:13:45.162Z,675.00
2023-04-01T11:14:45.201Z,720.00
2023-04-01T11:15:45.176Z,753.75
2023-04-01T11:16:45.130Z,787.50
2023-04-01T11:17:45.136Z,765.00
2023-04-01T11:18:45.109Z,781.88
2023-04-01T11:19:45.108Z,770.62
2023-04-01T11:20:45.087Z,787.50
2023-04-01T11:21:45.074Z,781.88
2023-04-01T11:22:45.081Z,776.25
2023-04-01T11:23:51.934Z,759.38
2023-04-01T11:24:46.057Z,680.62
2023-04-01T11:25:45.031Z,601.88
2023-04-01T11:26:45.117Z,511.88
2023-04-01T11:27:45.016Z,528.75
2023-04-01T11:28:45.043Z,478.12
2023-04-01T11:29:58.737Z,495.00
2023-04-01T11:30:45.978Z,585.00
2023-04-01T11:31:45.018Z,540.00
2023-04-01T11:32:45.061Z,545.62
2023-04-01T11:33:44.943Z,556.88
2023-04-01T11:34:44.937Z,579.38
2023-04-01T11:35:44.949Z,556.88
2023-04-01T11:36:44.953Z,613.12
2023-04-01T11:37:44.916Z,663.75
2023-04-01T11:38:44.892Z,601.88
2023-04-01T11:39:44.873Z,742.50
2023-04-01T11:40:44.877Z,748.12
2023-04-01T11:41:44.881Z,635.62
2023-04-01T11:42:44.864Z,511.88
2023-04-01T11:43:44.836Z,433.12
2023-04-01T11:44:44.829Z,405.00
2023-04-01T11:45:44.808Z,495.00
2023-04-01T11:46:44.942Z,472.50
2023-04-01T11:47:44.845Z,444.38
2023-04-01T11:48:45.919Z,511.88
2023-04-01T11:49:44.797Z,450.00
2023-04-01T11:50:44.796Z,360.00
2023-04-01T11:51:44.801Z,388.12
2023-04-01T11:52:44.788Z,388.12
2023-04-01T11:53:44.735Z,388.12
2023-04-01T11:54:44.744Z,405.00
2023-04-01T11:55:44.716Z,478.12
2023-04-01T11:56:44.771Z,523.12
2023-04-01T11:57:44.737Z,618.75
2023-04-01T11:58:44.688Z,697.50
2023-04-01T11:59:44.713Z,731.25
2023-04-01T12:00:44.657Z,765.00
2023-04-01T12:01:44.638Z,663.75
2023-04-01T12:02:44.698Z,630.00
2023-04-01T12:03:44.767Z,618.75
2023-04-01T12:04:44.649Z,590.62
2023-04-01T12:05:44.623Z,540.00
2023-04-01T12:06:44.593Z,466.88
2023-04-01T12:07:46.420Z,421.88
2023-04-01T12:08:44.643Z,444.38
2023-04-01T12:09:44.555Z,438.75
2023-04-01T12:10:44.554Z,405.00
2023-04-01T12:11:44.534Z,376.88
2023-04-01T12:12:54.143Z,388.12
2023-04-01T12:13:45.560Z,382.50
2023-04-01T12:14:44.506Z,303.75
2023-04-01T12:15:44.493Z,292.50
2023-04-01T12:16:44.524Z,309.38
2023-04-01T12:17:44.476Z,343.12
2023-04-01T12:18:44.470Z,416.25
2023-04-01T12:19:44.521Z,500.62
2023-04-01T12:20:44.452Z,630.00
2023-04-01T12:21:44.425Z,675.00
2023-04-01T12:22:44.430Z,663.75
2023-04-01T12:23:44.420Z,663.75
2023-04-01T12:24:44.392Z,691.88
2023-04-01T12:25:44.420Z,635.62
2023-04-01T12:26:44.429Z,618.75
2023-04-01T12:27:44.354Z,697.50
2023-04-01T12:28:44.370Z,776.25
2023-04-01T12:29:44.344Z,810.00
2023-04-01T12:30:44.329Z,793.12
2023-04-01T12:31:44.352Z,810.00
2023-04-01T12:32:44.339Z,877.50
2023-04-01T12:33:44.308Z,939.38
2023-04-01T12:34:44.304Z,911.25
2023-04-01T12:35:44.351Z,798.75
2023-04-01T12:36:44.290Z,793.12
2023-04-01T12:37:44.272Z,731.25
2023-04-01T12:38:44.290Z,613.12
2023-04-01T12:39:44.240Z,523.12
2023-04-01T12:40:44.260Z,433.12
2023-04-01T12:41:44.219Z,489.38
2023-04-01T12:42:44.195Z,478.12
2023-04-01T12:43:44.213Z,607.50
2023-04-01T12:44:44.188Z,635.62
2023-04-01T12:45:44.199Z,540.00
2023-04-01T12:46:44.161Z,495.00
2023-04-01T12:47:44.180Z,455.62
2023-04-01T12:48:44.136Z,382.50
2023-04-01T12:49:44.124Z,416.25
2023-04-01T12:50:44.110Z,511.88